sensor_id;sensor_type;location;lat;lon;timestamp;P1;durP1;ratioP1;P2;durP2;ratioP2
61373;SDS011;47242;48.158;-1.586;2023-08-06T04:30:07;15.00;;;2.08;;
61373;SDS011;47242;48.158;-1.586;2023-08-06T04:32:33;12.52;;;1.70;;
61373;SDS011;47242;48.158;-1.586;2023-08-06T04:34:59;12.02;;;2.60;;
61373;SDS011;47242;48.158;-1.586;2023-08-06T04:37:24;16.48;;;2.50;;
61373;SDS011;47242;48.158;-1.586;2023-08-06T04:39:50;17.42;;;2.50;;
61373;SDS011;47242;48.158;-1.586;2023-08-06T04:42:15;11.52;;;2.55;;
61373;SDS011;47242;48.158;-1.586;2023-08-06T04:44:41;24.05;;;2.80;;
61373;SDS011;47242;48.158;-1.586;2023-08-06T04:47:07;10.00;;;2.10;;
61373;SDS011;47242;48.158;-1.586;2023-08-06T04:49:32;15.65;;;3.10;;
61373;SDS011;47242;48.158;-1.586;2023-08-06T04:51:58;9.80;;;2.15;;
61373;SDS011;47242;48.158;-1.586;2023-08-06T04:54:23;14.02;;;2.50;;
61373;SDS011;47242;48.158;-1.586;2023-08-06T04:56:49;13.35;;;2.03;;
61373;SDS011;47242;48.158;-1.586;2023-08-06T04:59:15;17.00;;;2.20;;
61373;SDS011;47242;48.158;-1.586;2023-08-06T05:01:40;14.95;;;2.72;;
61373;SDS011;47242;48.158;-1.586;2023-08-06T05:04:06;11.88;;;2.05;;
61373;SDS011;47242;48.158;-1.586;2023-08-06T05:06:31;12.85;;;2.35;;
61373;SDS011;47242;48.158;-1.586;2023-08-06T05:08:57;9.05;;;1.83;;
61373;SDS011;47242;48.158;-1.586;2023-08-06T05:11:23;12.38;;;2.78;;
61373;SDS011;47242;48.158;-1.586;2023-08-06T05:13:49;13.75;;;2.05;;
61373;SDS011;47242;48.158;-1.586;2023-08-06T05:16:15;13.85;;;2.45;;
61373;SDS011;47242;48.158;-1.586;2023-08-06T05:18:40;9.82;;;2.17;;
61373;SDS011;47242;48.158;-1.586;2023-08-06T05:21:06;19.98;;;2.83;;
61373;SDS011;47242;48.158;-1.586;2023-08-06T05:23:32;17.20;;;2.22;;
61373;SDS011;47242;48.158;-1.586;2023-08-06T05:25:58;11.55;;;2.10;;
61373;SDS011;47242;48.158;-1.586;2023-08-06T05:28:23;17.90;;;2.10;;
61373;SDS011;47242;48.158;-1.586;2023-08-06T05:30:49;19.45;;;2.75;;
61373;SDS011;47242;48.158;-1.586;2023-08-06T05:33:14;15.07;;;2.50;;
61373;SDS011;47242;48.158;-1.586;2023-08-06T05:35:40;13.40;;;2.65;;
61373;SDS011;47242;48.158;-1.586;2023-08-06T05:38:07;14.95;;;2.55;;
61373;SDS011;47242;48.158;-1.586;2023-08-06T05:40:33;12.82;;;2.60;;
61373;SDS011;47242;48.158;-1.586;2023-08-06T05:42:59;20.02;;;3.20;;
61373;SDS011;47242;48.158;-1.586;2023-08-06T05:45:24;19.90;;;2.40;;
61373;SDS011;47242;48.158;-1.586;2023-08-06T05:47:50;17.23;;;2.90;;
61373;SDS011;47242;48.158;-1.586;2023-08-06T05:50:16;13.88;;;2.63;;
61373;SDS011;47242;48.158;-1.586;2023-08-06T05:52:42;14.75;;;3.10;;
61373;SDS011;47242;48.158;-1.586;2023-08-06T05:55:07;13.65;;;2.25;;
61373;SDS011;47242;48.158;-1.586;2023-08-06T05:57:33;23.90;;;4.13;;
61373;SDS011;47242;48.158;-1.586;2023-08-06T05:59:59;11.80;;;2.10;;
61373;SDS011;47242;48.158;-1.586;2023-08-06T06:02:25;17.42;;;2.88;;
61373;SDS011;47242;48.158;-1.586;2023-08-06T06:04:51;22.83;;;2.92;;
61373;SDS011;47242;48.158;-1.586;2023-08-06T06:07:17;15.82;;;2.50;;
61373;SDS011;47242;48.158;-1.586;2023-08-06T06:09:42;14.85;;;2.17;;
61373;SDS011;47242;48.158;-1.586;2023-08-06T06:12:08;15.07;;;3.20;;
61373;SDS011;47242;48.158;-1.586;2023-08-06T06:14:33;21.95;;;3.40;;
61373;SDS011;47242;48.158;-1.586;2023-08-06T06:16:59;11.07;;;2.67;;
61373;SDS011;47242;48.158;-1.586;2023-08-06T06:19:25;10.82;;;2.78;;
61373;SDS011;47242;48.158;-1.586;2023-08-06T06:21:51;14.57;;;2.58;;
61373;SDS011;47242;48.158;-1.586;2023-08-06T06:24:18;18.60;;;2.67;;
61373;SDS011;47242;48.158;-1.586;2023-08-06T06:26:44;21.40;;;3.20;;
61373;SDS011;47242;48.158;-1.586;2023-08-06T06:29:09;15.90;;;2.53;;
61373;SDS011;47242;48.158;-1.586;2023-08-06T06:31:35;23.13;;;2.78;;
61373;SDS011;47242;48.158;-1.586;2023-08-06T06:34:00;11.90;;;2.47;;
61373;SDS011;47242;48.158;-1.586;2023-08-06T06:36:26;15.48;;;2.67;;
61373;SDS011;47242;48.158;-1.586;2023-08-06T06:38:52;17.40;;;2.83;;
61373;SDS011;47242;48.158;-1.586;2023-08-06T06:41:17;12.95;;;2.72;;
61373;SDS011;47242;48.158;-1.586;2023-08-06T06:43:43;18.20;;;2.70;;
61373;SDS011;47242;48.158;-1.586;2023-08-06T06:46:09;17.92;;;2.67;;
61373;SDS011;47242;48.158;-1.586;2023-08-06T06:48:34;12.77;;;2.92;;
61373;SDS011;47242;48.158;-1.586;2023-08-06T06:51:00;22.25;;;2.80;;
61373;SDS011;47242;48.158;-1.586;2023-08-06T06:53:25;20.75;;;3.83;;
61373;SDS011;47242;48.158;-1.586;2023-08-06T06:55:54;10.45;;;2.42;;
61373;SDS011;47242;48.158;-1.586;2023-08-06T06:58:20;17.38;;;2.95;;
61373;SDS011;47242;48.158;-1.586;2023-08-06T07:00:47;19.33;;;3.35;;
61373;SDS011;47242;48.158;-1.586;2023-08-06T07:03:13;19.48;;;3.47;;
61373;SDS011;47242;48.158;-1.586;2023-08-06T07:05:41;19.27;;;3.05;;
61373;SDS011;47242;48.158;-1.586;2023-08-06T07:08:08;12.38;;;2.72;;
61373;SDS011;47242;48.158;-1.586;2023-08-06T07:10:33;21.80;;;3.15;;
61373;SDS011;47242;48.158;-1.586;2023-08-06T07:12:59;24.40;;;3.78;;
61373;SDS011;47242;48.158;-1.586;2023-08-06T07:15:25;17.27;;;3.30;;
61373;SDS011;47242;48.158;-1.586;2023-08-06T07:17:51;17.13;;;3.17;;
61373;SDS011;47242;48.158;-1.586;2023-08-06T07:20:16;13.73;;;2.97;;
61373;SDS011;47242;48.158;-1.586;2023-08-06T07:22:42;25.27;;;3.42;;
61373;SDS011;47242;48.158;-1.586;2023-08-06T07:25:08;15.48;;;3.05;;
61373;SDS011;47242;48.158;-1.586;2023-08-06T07:27:34;21.30;;;3.35;;
61373;SDS011;47242;48.158;-1.586;2023-08-06T07:29:59;18.77;;;3.10;;
61373;SDS011;47242;48.158;-1.586;2023-08-06T07:32:25;19.13;;;3.47;;
61373;SDS011;47242;48.158;-1.586;2023-08-06T07:34:52;19.10;;;3.80;;
61373;SDS011;47242;48.158;-1.586;2023-08-06T07:37:22;14.77;;;3.08;;
61373;SDS011;47242;48.158;-1.586;2023-08-06T07:39:47;14.13;;;3.40;;
61373;SDS011;47242;48.158;-1.586;2023-08-06T07:42:13;17.77;;;3.58;;
61373;SDS011;47242;48.158;-1.586;2023-08-06T07:44:39;17.63;;;2.88;;
61373;SDS011;47242;48.158;-1.586;2023-08-06T07:47:05;14.43;;;3.35;;
61373;SDS011;47242;48.158;-1.586;2023-08-06T07:49:30;20.15;;;3.42;;
61373;SDS011;47242;48.158;-1.586;2023-08-06T07:51:56;18.73;;;3.40;;
61373;SDS011;47242;48.158;-1.586;2023-08-06T07:54:21;19.40;;;3.03;;
61373;SDS011;47242;48.158;-1.586;2023-08-06T07:56:49;17.52;;;3.30;;
61373;SDS011;47242;48.158;-1.586;2023-08-06T07:59:14;17.65;;;3.08;;
61373;SDS011;47242;48.158;-1.586;2023-08-06T08:01:40;19.27;;;2.95;;
61373;SDS011;47242;48.158;-1.586;2023-08-06T08:04:06;15.13;;;3.20;;
61373;SDS011;47242;48.158;-1.586;2023-08-06T08:06:32;19.95;;;3.58;;
61373;SDS011;47242;48.158;-1.586;2023-08-06T08:08:58;17.88;;;3.40;;
61373;SDS011;47242;48.158;-1.586;2023-08-06T08:11:25;16.73;;;2.90;;
61373;SDS011;47242;48.158;-1.586;2023-08-06T08:13:50;14.82;;;2.72;;
61373;SDS011;47242;48.158;-1.586;2023-08-06T08:16:16;18.73;;;2.80;;
61373;SDS011;47242;48.158;-1.586;2023-08-06T08:18:42;19.63;;;3.08;;
61373;SDS011;47242;48.158;-1.586;2023-08-06T08:21:07;13.18;;;2.63;;
61373;SDS011;47242;48.158;-1.586;2023-08-06T08:23:33;18.73;;;2.58;;
61373;SDS011;47242;48.158;-1.586;2023-08-06T08:25:59;14.18;;;2.42;;
61373;SDS011;47242;48.158;-1.586;2023-08-06T08:28:27;15.05;;;3.50;;
61373;SDS011;47242;48.158;-1.586;2023-08-06T08:30:52;9.13;;;1.90;;
61373;SDS011;47242;48.158;-1.586;2023-08-06T08:33:18;12.40;;;2.22;;
61373;SDS011;47242;48.158;-1.586;2023-08-06T08:35:45;16.30;;;2.17;;
61373;SDS011;47242;48.158;-1.586;2023-08-06T08:38:11;8.38;;;2.00;;
61373;SDS011;47242;48.158;-1.586;2023-08-06T08:40:37;13.45;;;3.17;;
61373;SDS011;47242;48.158;-1.586;2023-08-06T08:43:07;9.88;;;2.53;;
61373;SDS011;47242;48.158;-1.586;2023-08-06T08:45:33;13.00;;;3.47;;
61373;SDS011;47242;48.158;-1.586;2023-08-06T08:48:04;15.23;;;2.75;;
61373;SDS011;47242;48.158;-1.586;2023-08-06T08:50:30;14.70;;;3.08;;
61373;SDS011;47242;48.158;-1.586;2023-08-06T08:52:56;10.40;;;3.83;;
61373;SDS011;47242;48.158;-1.586;2023-08-06T08:55:22;15.63;;;2.55;;
61373;SDS011;47242;48.158;-1.586;2023-08-06T08:57:48;11.80;;;2.90;;
61373;SDS011;47242;48.158;-1.586;2023-08-06T09:00:14;18.08;;;2.75;;
61373;SDS011;47242;48.158;-1.586;2023-08-06T09:02:39;12.38;;;2.85;;
61373;SDS011;47242;48.158;-1.586;2023-08-06T09:05:07;17.63;;;2.40;;
61373;SDS011;47242;48.158;-1.586;2023-08-06T09:07:35;13.52;;;2.70;;
61373;SDS011;47242;48.158;-1.586;2023-08-06T09:10:06;10.25;;;1.88;;
61373;SDS011;47242;48.158;-1.586;2023-08-06T09:12:35;8.48;;;1.85;;
61373;SDS011;47242;48.158;-1.586;2023-08-06T09:15:00;11.23;;;1.95;;
61373;SDS011;47242;48.158;-1.586;2023-08-06T09:17:28;7.90;;;1.52;;
61373;SDS011;47242;48.158;-1.586;2023-08-06T09:19:54;12.23;;;2.20;;
61373;SDS011;47242;48.158;-1.586;2023-08-06T09:22:20;11.95;;;2.33;;
61373;SDS011;47242;48.158;-1.586;2023-08-06T09:24:45;13.30;;;2.65;;
61373;SDS011;47242;48.158;-1.586;2023-08-06T09:27:11;9.18;;;2.25;;
61373;SDS011;47242;48.158;-1.586;2023-08-06T09:29:41;11.38;;;2.20;;
61373;SDS011;47242;48.158;-1.586;2023-08-06T09:32:13;12.25;;;2.55;;
61373;SDS011;47242;48.158;-1.586;2023-08-06T09:34:39;8.90;;;2.40;;
61373;SDS011;47242;48.158;-1.586;2023-08-06T09:37:08;7.93;;;2.42;;
61373;SDS011;47242;48.158;-1.586;2023-08-06T09:39:35;7.50;;;2.63;;
61373;SDS011;47242;48.158;-1.586;2023-08-06T09:42:03;7.38;;;1.75;;
61373;SDS011;47242;48.158;-1.586;2023-08-06T09:44:30;12.63;;;1.73;;
61373;SDS011;47242;48.158;-1.586;2023-08-06T09:46:57;7.25;;;1.95;;
61373;SDS011;47242;48.158;-1.586;2023-08-06T09:52:04;9.82;;;2.40;;
61373;SDS011;47242;48.158;-1.586;2023-08-06T09:54:30;13.18;;;2.13;;
61373;SDS011;47242;48.158;-1.586;2023-08-06T09:56:57;12.50;;;2.28;;
61373;SDS011;47242;48.158;-1.586;2023-08-06T09:59:23;11.82;;;2.40;;
61373;SDS011;47242;48.158;-1.586;2023-08-06T10:01:49;10.10;;;1.90;;
61373;SDS011;47242;48.158;-1.586;2023-08-06T10:04:16;9.52;;;2.05;;
61373;SDS011;47242;48.158;-1.586;2023-08-06T10:06:43;11.73;;;2.67;;
61373;SDS011;47242;48.158;-1.586;2023-08-06T10:09:12;6.18;;;1.75;;
61373;SDS011;47242;48.158;-1.586;2023-08-06T10:11:38;7.28;;;1.90;;
61373;SDS011;47242;48.158;-1.586;2023-08-06T10:16:33;10.50;;;3.10;;
61373;SDS011;47242;48.158;-1.586;2023-08-06T10:19:00;7.47;;;1.95;;
61373;SDS011;47242;48.158;-1.586;2023-08-06T10:21:28;8.13;;;1.92;;
61373;SDS011;47242;48.158;-1.586;2023-08-06T10:23:56;10.60;;;1.70;;
61373;SDS011;47242;48.158;-1.586;2023-08-06T10:26:28;11.00;;;1.73;;
61373;SDS011;47242;48.158;-1.586;2023-08-06T10:28:54;6.50;;;1.80;;
61373;SDS011;47242;48.158;-1.586;2023-08-06T10:31:52;10.05;;;2.50;;
61373;SDS011;47242;48.158;-1.586;2023-08-06T10:34:19;11.43;;;2.38;;
61373;SDS011;47242;48.158;-1.586;2023-08-06T10:36:45;11.13;;;2.17;;
61373;SDS011;47242;48.158;-1.586;2023-08-06T10:39:13;7.13;;;1.70;;
61373;SDS011;47242;48.158;-1.586;2023-08-06T10:41:39;6.75;;;1.50;;
61373;SDS011;47242;48.158;-1.586;2023-08-06T10:44:08;9.20;;;1.92;;
61373;SDS011;47242;48.158;-1.586;2023-08-06T10:46:35;7.70;;;1.45;;
61373;SDS011;47242;48.158;-1.586;2023-08-06T10:49:01;8.13;;;1.30;;
61373;SDS011;47242;48.158;-1.586;2023-08-06T10:51:27;10.05;;;1.73;;
61373;SDS011;47242;48.158;-1.586;2023-08-06T10:53:53;4.05;;;1.25;;
61373;SDS011;47242;48.158;-1.586;2023-08-06T10:56:20;6.10;;;1.27;;
61373;SDS011;47242;48.158;-1.586;2023-08-06T10:58:51;4.90;;;1.13;;
61373;SDS011;47242;48.158;-1.586;2023-08-06T11:01:19;4.13;;;1.20;;
61373;SDS011;47242;48.158;-1.586;2023-08-06T11:03:46;6.60;;;1.17;;
61373;SDS011;47242;48.158;-1.586;2023-08-06T11:06:20;6.82;;;1.40;;
61373;SDS011;47242;48.158;-1.586;2023-08-06T11:08:51;8.52;;;1.77;;
61373;SDS011;47242;48.158;-1.586;2023-08-06T11:11:18;4.65;;;1.02;;
61373;SDS011;47242;48.158;-1.586;2023-08-06T11:13:47;5.88;;;1.23;;
61373;SDS011;47242;48.158;-1.586;2023-08-06T11:16:14;6.10;;;1.10;;
61373;SDS011;47242;48.158;-1.586;2023-08-06T11:18:42;3.17;;;1.40;;
61373;SDS011;47242;48.158;-1.586;2023-08-06T11:21:08;7.97;;;1.42;;
61373;SDS011;47242;48.158;-1.586;2023-08-06T11:23:34;5.22;;;1.08;;
61373;SDS011;47242;48.158;-1.586;2023-08-06T11:26:01;4.80;;;1.02;;
61373;SDS011;47242;48.158;-1.586;2023-08-06T11:28:26;2.13;;;1.00;;
61373;SDS011;47242;48.158;-1.586;2023-08-06T11:30:52;3.85;;;1.15;;
61373;SDS011;47242;48.158;-1.586;2023-08-06T11:33:23;1.92;;;0.82;;
61373;SDS011;47242;48.158;-1.586;2023-08-06T11:35:53;4.88;;;1.00;;
61373;SDS011;47242;48.158;-1.586;2023-08-06T11:38:21;4.13;;;1.20;;
61373;SDS011;47242;48.158;-1.586;2023-08-06T11:40:50;6.05;;;1.13;;
61373;SDS011;47242;48.158;-1.586;2023-08-06T11:43:17;3.58;;;1.20;;
61373;SDS011;47242;48.158;-1.586;2023-08-06T11:45:47;6.95;;;1.58;;
61373;SDS011;47242;48.158;-1.586;2023-08-06T11:48:14;4.88;;;1.30;;
61373;SDS011;47242;48.158;-1.586;2023-08-06T11:50:40;5.38;;;1.65;;
61373;SDS011;47242;48.158;-1.586;2023-08-06T11:53:05;9.40;;;2.15;;
61373;SDS011;47242;48.158;-1.586;2023-08-06T11:55:31;3.97;;;1.13;;
61373;SDS011;47242;48.158;-1.586;2023-08-06T11:57:58;7.47;;;1.58;;
61373;SDS011;47242;48.158;-1.586;2023-08-06T12:00:28;5.07;;;1.10;;
61373;SDS011;47242;48.158;-1.586;2023-08-06T12:02:54;4.18;;;1.48;;
61373;SDS011;47242;48.158;-1.586;2023-08-06T12:05:22;5.82;;;1.83;;
61373;SDS011;47242;48.158;-1.586;2023-08-06T12:07:50;5.07;;;1.52;;
61373;SDS011;47242;48.158;-1.586;2023-08-06T12:10:21;3.50;;;1.40;;
61373;SDS011;47242;48.158;-1.586;2023-08-06T12:12:47;5.93;;;1.40;;
61373;SDS011;47242;48.158;-1.586;2023-08-06T12:15:13;5.07;;;1.25;;
61373;SDS011;47242;48.158;-1.586;2023-08-06T12:17:39;5.43;;;1.38;;
61373;SDS011;47242;48.158;-1.586;2023-08-06T12:20:05;4.07;;;0.95;;
61373;SDS011;47242;48.158;-1.586;2023-08-06T12:22:32;6.30;;;1.20;;
61373;SDS011;47242;48.158;-1.586;2023-08-06T12:25:02;6.78;;;1.10;;
61373;SDS011;47242;48.158;-1.586;2023-08-06T12:27:32;6.45;;;1.13;;
61373;SDS011;47242;48.158;-1.586;2023-08-06T12:29:59;8.43;;;1.40;;
61373;SDS011;47242;48.158;-1.586;2023-08-06T12:32:24;4.63;;;1.20;;
61373;SDS011;47242;48.158;-1.586;2023-08-06T12:34:50;4.82;;;1.20;;
61373;SDS011;47242;48.158;-1.586;2023-08-06T12:37:16;4.57;;;1.35;;
61373;SDS011;47242;48.158;-1.586;2023-08-06T12:39:41;5.22;;;1.30;;
61373;SDS011;47242;48.158;-1.586;2023-08-06T12:42:07;3.20;;;1.13;;
61373;SDS011;47242;48.158;-1.586;2023-08-06T12:44:32;4.40;;;1.30;;
61373;SDS011;47242;48.158;-1.586;2023-08-06T12:46:58;7.10;;;1.33;;
61373;SDS011;47242;48.158;-1.586;2023-08-06T12:49:24;6.15;;;1.35;;
61373;SDS011;47242;48.158;-1.586;2023-08-06T12:51:51;3.88;;;1.20;;
61373;SDS011;47242;48.158;-1.586;2023-08-06T12:54:18;4.85;;;1.30;;
61373;SDS011;47242;48.158;-1.586;2023-08-06T12:56:47;3.95;;;1.17;;
61373;SDS011;47242;48.158;-1.586;2023-08-06T12:59:14;6.47;;;1.48;;
61373;SDS011;47242;48.158;-1.586;2023-08-06T13:01:40;4.43;;;1.10;;
61373;SDS011;47242;48.158;-1.586;2023-08-06T13:04:06;5.40;;;1.30;;
61373;SDS011;47242;48.158;-1.586;2023-08-06T13:06:32;6.78;;;1.27;;
61373;SDS011;47242;48.158;-1.586;2023-08-06T13:09:11;5.47;;;1.63;;
61373;SDS011;47242;48.158;-1.586;2023-08-06T13:11:38;3.90;;;1.30;;
61373;SDS011;47242;48.158;-1.586;2023-08-06T13:14:05;5.43;;;1.13;;
61373;SDS011;47242;48.158;-1.586;2023-08-06T13:16:31;7.15;;;1.30;;
61373;SDS011;47242;48.158;-1.586;2023-08-06T13:18:57;7.88;;;1.30;;
61373;SDS011;47242;48.158;-1.586;2023-08-06T13:21:23;6.43;;;1.20;;
61373;SDS011;47242;48.158;-1.586;2023-08-06T13:23:48;6.30;;;1.20;;
61373;SDS011;47242;48.158;-1.586;2023-08-06T13:26:14;5.65;;;1.20;;
61373;SDS011;47242;48.158;-1.586;2023-08-06T13:28:41;8.00;;;1.50;;
61373;SDS011;47242;48.158;-1.586;2023-08-06T13:31:06;5.57;;;1.45;;
61373;SDS011;47242;48.158;-1.586;2023-08-06T13:33:32;7.95;;;1.50;;
61373;SDS011;47242;48.158;-1.586;2023-08-06T13:35:58;5.93;;;1.40;;
61373;SDS011;47242;48.158;-1.586;2023-08-06T13:38:24;3.90;;;1.30;;
61373;SDS011;47242;48.158;-1.586;2023-08-06T13:40:49;7.93;;;1.40;;
61373;SDS011;47242;48.158;-1.586;2023-08-06T13:43:15;3.92;;;1.10;;
61373;SDS011;47242;48.158;-1.586;2023-08-06T13:45:43;5.38;;;1.42;;
61373;SDS011;47242;48.158;-1.586;2023-08-06T13:48:09;3.97;;;1.13;;
61373;SDS011;47242;48.158;-1.586;2023-08-06T13:50:35;3.65;;;1.30;;
61373;SDS011;47242;48.158;-1.586;2023-08-06T13:53:02;5.47;;;1.60;;
61373;SDS011;47242;48.158;-1.586;2023-08-06T13:55:28;4.07;;;1.20;;
61373;SDS011;47242;48.158;-1.586;2023-08-06T13:57:54;9.68;;;1.40;;
61373;SDS011;47242;48.158;-1.586;2023-08-06T14:00:20;6.45;;;1.52;;
61373;SDS011;47242;48.158;-1.586;2023-08-06T14:02:45;6.70;;;1.38;;
61373;SDS011;47242;48.158;-1.586;2023-08-06T14:05:11;5.22;;;1.40;;
61373;SDS011;47242;48.158;-1.586;2023-08-06T14:07:37;6.35;;;1.63;;
61373;SDS011;47242;48.158;-1.586;2023-08-06T14:10:02;5.57;;;1.50;;
61373;SDS011;47242;48.158;-1.586;2023-08-06T14:12:28;6.82;;;1.40;;
61373;SDS011;47242;48.158;-1.586;2023-08-06T14:14:54;9.02;;;1.73;;
61373;SDS011;47242;48.158;-1.586;2023-08-06T14:17:19;7.25;;;1.42;;
61373;SDS011;47242;48.158;-1.586;2023-08-06T14:19:45;6.05;;;1.48;;
61373;SDS011;47242;48.158;-1.586;2023-08-06T14:22:11;7.03;;;1.35;;
61373;SDS011;47242;48.158;-1.586;2023-08-06T14:24:37;5.60;;;1.40;;
61373;SDS011;47242;48.158;-1.586;2023-08-06T14:27:02;3.63;;;1.27;;
61373;SDS011;47242;48.158;-1.586;2023-08-06T14:29:31;5.82;;;1.40;;
61373;SDS011;47242;48.158;-1.586;2023-08-06T14:31:56;5.30;;;1.30;;
61373;SDS011;47242;48.158;-1.586;2023-08-06T14:34:22;3.53;;;1.20;;
61373;SDS011;47242;48.158;-1.586;2023-08-06T14:36:47;5.20;;;1.35;;
61373;SDS011;47242;48.158;-1.586;2023-08-06T14:39:13;6.47;;;1.27;;
61373;SDS011;47242;48.158;-1.586;2023-08-06T14:41:39;4.55;;;1.65;;
61373;SDS011;47242;48.158;-1.586;2023-08-06T14:44:04;5.97;;;1.20;;
61373;SDS011;47242;48.158;-1.586;2023-08-06T14:46:32;6.25;;;1.25;;
61373;SDS011;47242;48.158;-1.586;2023-08-06T14:48:58;8.05;;;1.33;;
61373;SDS011;47242;48.158;-1.586;2023-08-06T14:51:23;6.25;;;1.45;;
61373;SDS011;47242;48.158;-1.586;2023-08-06T14:53:49;4.82;;;1.17;;
61373;SDS011;47242;48.158;-1.586;2023-08-06T14:56:15;6.70;;;1.60;;
61373;SDS011;47242;48.158;-1.586;2023-08-06T14:58:40;6.45;;;1.50;;
61373;SDS011;47242;48.158;-1.586;2023-08-06T15:01:06;3.50;;;1.10;;
61373;SDS011;47242;48.158;-1.586;2023-08-06T15:03:32;6.75;;;1.23;;
61373;SDS011;47242;48.158;-1.586;2023-08-06T15:05:58;5.57;;;1.40;;
61373;SDS011;47242;48.158;-1.586;2023-08-06T15:08:24;4.03;;;1.20;;
61373;SDS011;47242;48.158;-1.586;2023-08-06T15:10:53;5.50;;;1.42;;
61373;SDS011;47242;48.158;-1.586;2023-08-06T15:13:19;5.05;;;1.55;;
61373;SDS011;47242;48.158;-1.586;2023-08-06T15:15:48;6.32;;;1.40;;
61373;SDS011;47242;48.158;-1.586;2023-08-06T15:18:14;5.50;;;1.27;;
61373;SDS011;47242;48.158;-1.586;2023-08-06T15:20:40;3.78;;;1.30;;
61373;SDS011;47242;48.158;-1.586;2023-08-06T15:23:05;6.57;;;1.23;;
61373;SDS011;47242;48.158;-1.586;2023-08-06T15:25:31;6.47;;;1.50;;
61373;SDS011;47242;48.158;-1.586;2023-08-06T15:27:56;4.53;;;1.20;;
61373;SDS011;47242;48.158;-1.586;2023-08-06T15:30:22;4.53;;;1.35;;
61373;SDS011;47242;48.158;-1.586;2023-08-06T15:32:48;9.63;;;1.60;;
61373;SDS011;47242;48.158;-1.586;2023-08-06T15:35:14;4.95;;;1.58;;
61373;SDS011;47242;48.158;-1.586;2023-08-06T15:37:39;6.53;;;1.50;;
61373;SDS011;47242;48.158;-1.586;2023-08-06T15:40:08;7.63;;;1.65;;
61373;SDS011;47242;48.158;-1.586;2023-08-06T15:42:34;4.38;;;1.23;;
61373;SDS011;47242;48.158;-1.586;2023-08-06T15:45:00;6.72;;;1.80;;
61373;SDS011;47242;48.158;-1.586;2023-08-06T15:47:28;8.57;;;1.58;;
61373;SDS011;47242;48.158;-1.586;2023-08-06T15:49:54;6.43;;;1.58;;
61373;SDS011;47242;48.158;-1.586;2023-08-06T15:52:19;5.28;;;1.40;;
61373;SDS011;47242;48.158;-1.586;2023-08-06T15:54:45;5.00;;;1.20;;
61373;SDS011;47242;48.158;-1.586;2023-08-06T15:57:11;7.63;;;1.58;;
61373;SDS011;47242;48.158;-1.586;2023-08-06T15:59:36;5.18;;;1.90;;
61373;SDS011;47242;48.158;-1.586;2023-08-06T16:02:02;6.45;;;1.65;;
61373;SDS011;47242;48.158;-1.586;2023-08-06T16:04:29;6.95;;;1.73;;
61373;SDS011;47242;48.158;-1.586;2023-08-06T16:06:55;5.72;;;1.40;;
61373;SDS011;47242;48.158;-1.586;2023-08-06T16:09:21;8.63;;;1.60;;
61373;SDS011;47242;48.158;-1.586;2023-08-06T16:11:51;7.10;;;1.70;;
61373;SDS011;47242;48.158;-1.586;2023-08-06T16:14:17;5.93;;;1.77;;
61373;SDS011;47242;48.158;-1.586;2023-08-06T16:16:44;10.43;;;1.58;;
61373;SDS011;47242;48.158;-1.586;2023-08-06T16:19:10;8.40;;;2.03;;
61373;SDS011;47242;48.158;-1.586;2023-08-06T16:21:36;7.95;;;1.65;;
61373;SDS011;47242;48.158;-1.586;2023-08-06T16:24:02;5.88;;;1.63;;
61373;SDS011;47242;48.158;-1.586;2023-08-06T16:26:29;7.32;;;1.73;;
61373;SDS011;47242;48.158;-1.586;2023-08-06T16:28:58;7.45;;;1.58;;
61373;SDS011;47242;48.158;-1.586;2023-08-06T16:31:23;8.40;;;1.70;;
61373;SDS011;47242;48.158;-1.586;2023-08-06T16:33:49;6.78;;;1.65;;
61373;SDS011;47242;48.158;-1.586;2023-08-06T16:36:15;4.85;;;1.60;;
61373;SDS011;47242;48.158;-1.586;2023-08-06T16:38:41;6.32;;;1.48;;
61373;SDS011;47242;48.158;-1.586;2023-08-06T16:41:07;6.65;;;1.90;;
61373;SDS011;47242;48.158;-1.586;2023-08-06T16:43:33;6.07;;;1.60;;
61373;SDS011;47242;48.158;-1.586;2023-08-06T16:45:58;6.32;;;1.63;;
61373;SDS011;47242;48.158;-1.586;2023-08-06T16:48:24;7.97;;;1.90;;
61373;SDS011;47242;48.158;-1.586;2023-08-06T16:50:59;7.45;;;1.35;;
61373;SDS011;47242;48.158;-1.586;2023-08-06T16:53:25;6.95;;;1.95;;
61373;SDS011;47242;48.158;-1.586;2023-08-06T16:55:52;5.85;;;1.40;;
61373;SDS011;47242;48.158;-1.586;2023-08-06T16:58:22;6.55;;;1.50;;
61373;SDS011;47242;48.158;-1.586;2023-08-06T17:00:49;8.02;;;1.80;;
61373;SDS011;47242;48.158;-1.586;2023-08-06T17:03:15;4.25;;;1.30;;
61373;SDS011;47242;48.158;-1.586;2023-08-06T17:05:41;7.82;;;1.88;;
61373;SDS011;47242;48.158;-1.586;2023-08-06T17:08:08;6.15;;;1.38;;
61373;SDS011;47242;48.158;-1.586;2023-08-06T17:10:33;8.75;;;1.75;;
61373;SDS011;47242;48.158;-1.586;2023-08-06T17:13:00;8.10;;;1.70;;
61373;SDS011;47242;48.158;-1.586;2023-08-06T17:15:27;5.30;;;1.50;;
61373;SDS011;47242;48.158;-1.586;2023-08-06T17:17:53;4.70;;;1.35;;
61373;SDS011;47242;48.158;-1.586;2023-08-06T17:20:19;5.40;;;1.55;;
61373;SDS011;47242;48.158;-1.586;2023-08-06T17:22:44;6.63;;;1.40;;
61373;SDS011;47242;48.158;-1.586;2023-08-06T17:25:10;5.70;;;1.65;;
61373;SDS011;47242;48.158;-1.586;2023-08-06T17:27:35;5.25;;;1.38;;
61373;SDS011;47242;48.158;-1.586;2023-08-06T17:30:01;8.13;;;1.50;;
61373;SDS011;47242;48.158;-1.586;2023-08-06T17:32:27;7.03;;;1.67;;
61373;SDS011;47242;48.158;-1.586;2023-08-06T17:34:53;5.00;;;1.40;;
61373;SDS011;47242;48.158;-1.586;2023-08-06T17:37:18;5.05;;;1.30;;
61373;SDS011;47242;48.158;-1.586;2023-08-06T17:39:44;5.50;;;1.48;;
61373;SDS011;47242;48.158;-1.586;2023-08-06T17:42:10;7.85;;;1.60;;
61373;SDS011;47242;48.158;-1.586;2023-08-06T17:44:44;4.95;;;1.40;;
61373;SDS011;47242;48.158;-1.586;2023-08-06T17:47:10;4.63;;;1.60;;
61373;SDS011;47242;48.158;-1.586;2023-08-06T17:49:35;6.25;;;1.80;;
61373;SDS011;47242;48.158;-1.586;2023-08-06T17:52:01;9.43;;;1.73;;
61373;SDS011;47242;48.158;-1.586;2023-08-06T17:54:27;6.15;;;1.73;;
61373;SDS011;47242;48.158;-1.586;2023-08-06T17:56:52;6.45;;;1.90;;
61373;SDS011;47242;48.158;-1.586;2023-08-06T17:59:18;5.97;;;1.73;;
61373;SDS011;47242;48.158;-1.586;2023-08-06T18:01:44;6.60;;;1.50;;
61373;SDS011;47242;48.158;-1.586;2023-08-06T18:04:10;6.10;;;1.30;;
61373;SDS011;47242;48.158;-1.586;2023-08-06T18:06:35;11.43;;;1.95;;
61373;SDS011;47242;48.158;-1.586;2023-08-06T18:09:02;8.10;;;2.65;;
61373;SDS011;47242;48.158;-1.586;2023-08-06T18:11:28;4.63;;;1.45;;
61373;SDS011;47242;48.158;-1.586;2023-08-06T18:13:54;7.78;;;2.22;;
61373;SDS011;47242;48.158;-1.586;2023-08-06T18:16:19;6.50;;;1.20;;
61373;SDS011;47242;48.158;-1.586;2023-08-06T18:18:45;5.63;;;1.75;;
61373;SDS011;47242;48.158;-1.586;2023-08-06T18:21:11;4.47;;;1.70;;
61373;SDS011;47242;48.158;-1.586;2023-08-06T18:23:37;6.97;;;1.80;;
61373;SDS011;47242;48.158;-1.586;2023-08-06T18:26:03;6.40;;;1.95;;
61373;SDS011;47242;48.158;-1.586;2023-08-06T18:28:29;6.93;;;1.60;;
61373;SDS011;47242;48.158;-1.586;2023-08-06T18:30:55;7.57;;;1.70;;
61373;SDS011;47242;48.158;-1.586;2023-08-06T18:33:21;6.53;;;2.00;;
61373;SDS011;47242;48.158;-1.586;2023-08-06T18:35:47;7.20;;;1.92;;
61373;SDS011;47242;48.158;-1.586;2023-08-06T18:38:13;13.85;;;1.80;;
61373;SDS011;47242;48.158;-1.586;2023-08-06T18:40:38;7.97;;;1.90;;
61373;SDS011;47242;48.158;-1.586;2023-08-06T18:43:04;5.10;;;1.52;;
61373;SDS011;47242;48.158;-1.586;2023-08-06T18:45:30;5.75;;;1.50;;
61373;SDS011;47242;48.158;-1.586;2023-08-06T18:48:04;4.47;;;1.27;;
61373;SDS011;47242;48.158;-1.586;2023-08-06T18:50:30;7.50;;;1.90;;
61373;SDS011;47242;48.158;-1.586;2023-08-06T18:53:00;8.45;;;1.58;;
61373;SDS011;47242;48.158;-1.586;2023-08-06T18:55:31;3.78;;;1.60;;
61373;SDS011;47242;48.158;-1.586;2023-08-06T18:57:57;8.93;;;1.80;;
61373;SDS011;47242;48.158;-1.586;2023-08-06T19:00:24;7.00;;;1.50;;